sensor_id;sensor_type;location;lat;lon;timestamp;pressure;altitude;pressure_sealevel;temperature;humidity
54900;BME280;40801;41.924;25.562;2023-07-31T00:00:32;98790.50;;;24.22;45.69
54900;BME280;40801;41.924;25.562;2023-07-31T00:02:57;98785.31;;;24.31;45.25
54900;BME280;40801;41.924;25.562;2023-07-31T00:05:23;98790.50;;;24.22;45.95
54900;BME280;40801;41.924;25.562;2023-07-31T00:07:48;98784.19;;;24.29;45.89
54900;BME280;40801;41.924;25.562;2023-07-31T00:10:13;98789.25;;;24.27;45.88
54900;BME280;40801;41.924;25.562;2023-07-31T00:12:41;98789.66;;;24.25;46.28
54900;BME280;40801;41.924;25.562;2023-07-31T00:15:07;98794.00;;;24.26;46.19
54900;BME280;40801;41.924;25.562;2023-07-31T00:17:33;98783.09;;;24.16;47.02
54900;BME280;40801;41.924;25.562;2023-07-31T00:19:58;98792.22;;;24.09;47.42
54900;BME280;40801;41.924;25.562;2023-07-31T00:22:24;98793.09;;;24.02;47.80
54900;BME280;40801;41.924;25.562;2023-07-31T00:24:49;98794.78;;;23.89;48.60
54900;BME280;40801;41.924;25.562;2023-07-31T00:27:14;98806.34;;;23.73;48.87
54900;BME280;40801;41.924;25.562;2023-07-31T00:29:40;98809.91;;;23.67;49.70
54900;BME280;40801;41.924;25.562;2023-07-31T00:32:06;98820.06;;;23.77;49.67
54900;BME280;40801;41.924;25.562;2023-07-31T00:34:31;98823.59;;;23.77;49.83
54900;BME280;40801;41.924;25.562;2023-07-31T00:36:57;98838.53;;;23.80;49.94
54900;BME280;40801;41.924;25.562;2023-07-31T00:39:22;98837.41;;;23.70;50.81
54900;BME280;40801;41.924;25.562;2023-07-31T00:41:47;98838.97;;;23.75;51.11
54900;BME280;40801;41.924;25.562;2023-07-31T00:44:13;98837.41;;;23.70;51.52
54900;BME280;40801;41.924;25.562;2023-07-31T00:46:38;98848.03;;;23.75;51.22
54900;BME280;40801;41.924;25.562;2023-07-31T00:49:04;98857.03;;;23.79;51.23
54900;BME280;40801;41.924;25.562;2023-07-31T00:51:30;98856.66;;;23.77;51.67
54900;BME280;40801;41.924;25.562;2023-07-31T00:53:56;98866.13;;;23.73;52.32
54900;BME280;40801;41.924;25.562;2023-07-31T00:56:23;98862.59;;;23.72;52.28
54900;BME280;40801;41.924;25.562;2023-07-31T00:58:48;98855.19;;;23.62;53.10
54900;BME280;40801;41.924;25.562;2023-07-31T01:01:14;98860.59;;;23.76;52.63
54900;BME280;40801;41.924;25.562;2023-07-31T01:03:39;98856.22;;;23.83;52.59
54900;BME280;40801;41.924;25.562;2023-07-31T01:06:14;98850.50;;;23.59;55.02
54900;BME280;40801;41.924;25.562;2023-07-31T01:08:51;98861.09;;;23.61;55.02
54900;BME280;40801;41.924;25.562;2023-07-31T01:11:23;98853.25;;;23.59;54.37
54900;BME280;40801;41.924;25.562;2023-07-31T01:13:50;98846.59;;;23.49;54.44
54900;BME280;40801;41.924;25.562;2023-07-31T01:16:15;98857.28;;;23.37;54.80
54900;BME280;40801;41.924;25.562;2023-07-31T01:18:41;98861.19;;;23.46;54.78
54900;BME280;40801;41.924;25.562;2023-07-31T01:26:38;98856.91;;;23.35;55.32
54900;BME280;40801;41.924;25.562;2023-07-31T01:29:17;98861.63;;;23.38;57.35
54900;BME280;40801;41.924;25.562;2023-07-31T01:31:48;98866.31;;;23.41;55.92
54900;BME280;40801;41.924;25.562;2023-07-31T01:34:15;98871.44;;;23.42;56.71
54900;BME280;40801;41.924;25.562;2023-07-31T01:36:43;98878.44;;;23.51;55.03
54900;BME280;40801;41.924;25.562;2023-07-31T01:39:08;98872.22;;;23.43;55.90
54900;BME280;40801;41.924;25.562;2023-07-31T01:41:33;98883.16;;;23.54;55.61
54900;BME280;40801;41.924;25.562;2023-07-31T01:43:59;98869.81;;;23.48;56.30
54900;BME280;40801;41.924;25.562;2023-07-31T01:46:24;98868.28;;;23.40;57.02
54900;BME280;40801;41.924;25.562;2023-07-31T01:48:50;98878.50;;;23.43;56.87
54900;BME280;40801;41.924;25.562;2023-07-31T01:51:15;98878.06;;;23.48;56.51
54900;BME280;40801;41.924;25.562;2023-07-31T01:53:41;98880.84;;;23.41;56.95
54900;BME280;40801;41.924;25.562;2023-07-31T01:56:06;98882.44;;;23.39;56.99
54900;BME280;40801;41.924;25.562;2023-07-31T01:58:50;98876.97;;;23.35;59.19
54900;BME280;40801;41.924;25.562;2023-07-31T02:01:15;98884.88;;;23.26;57.97
54900;BME280;40801;41.924;25.562;2023-07-31T02:03:41;98884.88;;;23.26;58.01
54900;BME280;40801;41.924;25.562;2023-07-31T02:06:07;98884.88;;;23.26;58.09
54900;BME280;40801;41.924;25.562;2023-07-31T02:08:32;98885.66;;;23.30;57.74
54900;BME280;40801;41.924;25.562;2023-07-31T02:10:58;98881.31;;;23.29;58.05
54900;BME280;40801;41.924;25.562;2023-07-31T02:13:23;98877.38;;;23.34;57.82
54900;BME280;40801;41.924;25.562;2023-07-31T02:15:48;98876.97;;;23.32;57.81
54900;BME280;40801;41.924;25.562;2023-07-31T02:18:14;98877.75;;;23.36;57.98
54900;BME280;40801;41.924;25.562;2023-07-31T02:20:39;98879.34;;;23.30;58.36
54900;BME280;40801;41.924;25.562;2023-07-31T02:23:04;98880.16;;;23.27;58.29
54900;BME280;40801;41.924;25.562;2023-07-31T02:25:30;98882.47;;;23.35;58.03
54900;BME280;40801;41.924;25.562;2023-07-31T02:27:56;98883.69;;;23.31;58.24
54900;BME280;40801;41.924;25.562;2023-07-31T02:30:21;98876.16;;;23.38;57.72
54900;BME280;40801;41.924;25.562;2023-07-31T02:32:47;98881.63;;;23.45;57.48
54900;BME280;40801;41.924;25.562;2023-07-31T02:35:12;98882.81;;;23.41;57.85
54900;BME280;40801;41.924;25.562;2023-07-31T02:37:41;98880.81;;;23.52;57.20
54900;BME280;40801;41.924;25.562;2023-07-31T02:40:07;98879.63;;;23.49;57.40
54900;BME280;40801;41.924;25.562;2023-07-31T02:42:32;98873.75;;;23.47;57.50
54900;BME280;40801;41.924;25.562;2023-07-31T02:44:57;98872.94;;;23.51;57.64
54900;BME280;40801;41.924;25.562;2023-07-31T02:47:23;98878.00;;;23.63;56.76
54900;BME280;40801;41.924;25.562;2023-07-31T02:49:48;98875.63;;;23.65;56.66
54900;BME280;40801;41.924;25.562;2023-07-31T02:52:14;98878.84;;;23.56;57.05
54900;BME280;40801;41.924;25.562;2023-07-31T02:54:39;98884.72;;;23.55;56.99
54900;BME280;40801;41.924;25.562;2023-07-31T02:57:05;98891.84;;;23.48;57.04
54900;BME280;40801;41.924;25.562;2023-07-31T02:59:31;98885.56;;;23.44;57.08
54900;BME280;40801;41.924;25.562;2023-07-31T03:01:56;98879.75;;;23.32;57.11
54900;BME280;40801;41.924;25.562;2023-07-31T03:04:22;98875.44;;;23.27;56.79
54900;BME280;40801;41.924;25.562;2023-07-31T03:06:47;98871.56;;;23.21;56.54
54900;BME280;40801;41.924;25.562;2023-07-31T03:09:12;98875.50;;;23.16;56.59
54900;BME280;40801;41.924;25.562;2023-07-31T03:11:38;98874.03;;;22.98;57.22
54900;BME280;40801;41.924;25.562;2023-07-31T03:14:03;98886.22;;;22.97;57.18
54900;BME280;40801;41.924;25.562;2023-07-31T03:16:28;98879.19;;;22.85;57.46
54900;BME280;40801;41.924;25.562;2023-07-31T03:18:54;98885.06;;;22.80;57.39
54900;BME280;40801;41.924;25.562;2023-07-31T03:21:20;98884.72;;;22.71;57.39
54900;BME280;40801;41.924;25.562;2023-07-31T03:23:45;98881.63;;;22.58;57.71
54900;BME280;40801;41.924;25.562;2023-07-31T03:26:10;98885.53;;;22.64;57.26
54900;BME280;40801;41.924;25.562;2023-07-31T03:28:36;98899.66;;;22.63;57.59
54900;BME280;40801;41.924;25.562;2023-07-31T03:31:02;98904.00;;;22.56;57.88
54900;BME280;40801;41.924;25.562;2023-07-31T03:33:27;98903.59;;;22.58;57.83
54900;BME280;40801;41.924;25.562;2023-07-31T03:35:53;98906.72;;;22.64;57.74
54900;BME280;40801;41.924;25.562;2023-07-31T03:38:18;98909.06;;;22.69;57.30
54900;BME280;40801;41.924;25.562;2023-07-31T03:40:44;98910.63;;;22.70;57.37
54900;BME280;40801;41.924;25.562;2023-07-31T03:43:10;98907.88;;;22.73;57.24
54900;BME280;40801;41.924;25.562;2023-07-31T03:45:35;98899.63;;;22.73;56.93
54900;BME280;40801;41.924;25.562;2023-07-31T03:48:01;98899.66;;;22.66;57.01
54900;BME280;40801;41.924;25.562;2023-07-31T03:50:26;98895.34;;;22.62;57.27
54900;BME280;40801;41.924;25.562;2023-07-31T03:52:52;98898.06;;;22.65;57.41
54900;BME280;40801;41.924;25.562;2023-07-31T03:55:18;98905.53;;;22.65;57.51
54900;BME280;40801;41.924;25.562;2023-07-31T03:57:43;98898.47;;;22.64;57.49
54900;BME280;40801;41.924;25.562;2023-07-31T04:00:10;98901.59;;;22.73;57.14
54900;BME280;40801;41.924;25.562;2023-07-31T04:02:54;98894.88;;;22.77;56.95
54900;BME280;40801;41.924;25.562;2023-07-31T04:05:19;98888.22;;;22.85;56.94
54900;BME280;40801;41.924;25.562;2023-07-31T04:07:45;98884.69;;;22.85;56.83
54900;BME280;40801;41.924;25.562;2023-07-31T04:10:10;98886.22;;;22.93;56.75
54900;BME280;40801;41.924;25.562;2023-07-31T04:12:36;98892.44;;;23.04;56.53
54900;BME280;40801;41.924;25.562;2023-07-31T04:15:01;98891.25;;;23.09;57.04
54900;BME280;40801;41.924;25.562;2023-07-31T04:17:26;98894.38;;;23.11;56.97
54900;BME280;40801;41.924;25.562;2023-07-31T04:19:52;98897.13;;;23.18;57.10
54900;BME280;40801;41.924;25.562;2023-07-31T04:22:17;98901.38;;;23.26;56.85
54900;BME280;40801;41.924;25.562;2023-07-31T04:24:42;98902.50;;;23.36;56.42
54900;BME280;40801;41.924;25.562;2023-07-31T04:27:08;98903.25;;;23.47;56.39
54900;BME280;40801;41.924;25.562;2023-07-31T04:29:33;98904.34;;;23.60;56.27
54900;BME280;40801;41.924;25.562;2023-07-31T04:31:59;98909.81;;;23.67;56.19
54900;BME280;40801;41.924;25.562;2023-07-31T04:34:24;98911.72;;;23.77;55.64
54900;BME280;40801;41.924;25.562;2023-07-31T04:36:49;98910.03;;;23.91;55.17
54900;BME280;40801;41.924;25.562;2023-07-31T04:39:15;98913.13;;;24.00;54.85
54900;BME280;40801;41.924;25.562;2023-07-31T04:41:40;98916.59;;;24.07;54.54
54900;BME280;40801;41.924;25.562;2023-07-31T04:44:05;98917.75;;;24.10;54.76
54900;BME280;40801;41.924;25.562;2023-07-31T04:46:31;98924.44;;;24.13;54.28
54900;BME280;40801;41.924;25.562;2023-07-31T04:48:56;98928.75;;;24.14;53.45
54900;BME280;40801;41.924;25.562;2023-07-31T04:51:22;98937.41;;;24.12;53.78
54900;BME280;40801;41.924;25.562;2023-07-31T04:53:48;98941.59;;;24.27;53.47
54900;BME280;40801;41.924;25.562;2023-07-31T04:56:13;98943.50;;;24.41;52.95
54900;BME280;40801;41.924;25.562;2023-07-31T04:58:40;98941.81;;;24.51;52.40
54900;BME280;40801;41.924;25.562;2023-07-31T05:01:06;98946.09;;;24.59;51.90
54900;BME280;40801;41.924;25.562;2023-07-31T05:03:31;98950.47;;;24.53;52.24
54900;BME280;40801;41.924;25.562;2023-07-31T05:05:56;98947.97;;;24.65;51.52
54900;BME280;40801;41.924;25.562;2023-07-31T05:08:22;98946.94;;;24.90;50.74
54900;BME280;40801;41.924;25.562;2023-07-31T05:10:47;98956.00;;;24.90;50.46
54900;BME280;40801;41.924;25.562;2023-07-31T05:13:13;98963.91;;;24.88;50.41
54900;BME280;40801;41.924;25.562;2023-07-31T05:15:41;98967.72;;;24.98;50.35
54900;BME280;40801;41.924;25.562;2023-07-31T05:18:06;98979.34;;;25.20;49.47
54900;BME280;40801;41.924;25.562;2023-07-31T05:20:31;98991.91;;;25.24;49.01
54900;BME280;40801;41.924;25.562;2023-07-31T05:22:57;98999.44;;;25.20;49.02
54900;BME280;40801;41.924;25.562;2023-07-31T05:25:22;99004.91;;;25.24;49.48
54900;BME280;40801;41.924;25.562;2023-07-31T05:27:48;99016.88;;;25.44;48.93
54900;BME280;40801;41.924;25.562;2023-07-31T05:30:13;99022.38;;;25.48;49.14
54900;BME280;40801;41.924;25.562;2023-07-31T05:32:38;99026.13;;;25.61;49.09
54900;BME280;40801;41.924;25.562;2023-07-31T05:35:04;99026.06;;;25.68;49.43
54900;BME280;40801;41.924;25.562;2023-07-31T05:37:30;99037.47;;;25.70;50.30
54900;BME280;40801;41.924;25.562;2023-07-31T05:39:55;99033.53;;;25.37;52.78
54900;BME280;40801;41.924;25.562;2023-07-31T05:42:20;99036.19;;;25.10;53.89
54900;BME280;40801;41.924;25.562;2023-07-31T05:44:46;99032.59;;;25.17;54.20
54900;BME280;40801;41.924;25.562;2023-07-31T05:47:12;99047.88;;;25.25;53.49
54900;BME280;40801;41.924;25.562;2023-07-31T05:49:37;99044.97;;;25.01;54.51
54900;BME280;40801;41.924;25.562;2023-07-31T05:52:03;99043.91;;;24.88;55.05
54900;BME280;40801;41.924;25.562;2023-07-31T05:54:28;99047.00;;;24.94;55.07
54900;BME280;40801;41.924;25.562;2023-07-31T05:56:54;99048.63;;;24.84;55.64
54900;BME280;40801;41.924;25.562;2023-07-31T05:59:19;99038.69;;;24.53;56.83
54900;BME280;40801;41.924;25.562;2023-07-31T06:01:45;99046.16;;;24.52;56.73
54900;BME280;40801;41.924;25.562;2023-07-31T06:04:10;99046.75;;;24.29;58.12
54900;BME280;40801;41.924;25.562;2023-07-31T06:06:36;99045.94;;;24.25;58.50
54900;BME280;40801;41.924;25.562;2023-07-31T06:09:01;99050.28;;;24.33;58.94
54900;BME280;40801;41.924;25.562;2023-07-31T06:11:28;99048.84;;;24.07;61.19
54900;BME280;40801;41.924;25.562;2023-07-31T06:13:54;99065.44;;;23.93;62.22
54900;BME280;40801;41.924;25.562;2023-07-31T06:16:19;99061.66;;;23.62;63.32
54900;BME280;40801;41.924;25.562;2023-07-31T06:18:46;99067.59;;;23.57;64.14
54900;BME280;40801;41.924;25.562;2023-07-31T06:21:12;99064.03;;;23.53;64.46
54900;BME280;40801;41.924;25.562;2023-07-31T06:23:38;99066.50;;;23.23;66.86
54900;BME280;40801;41.924;25.562;2023-07-31T06:26:03;99064.13;;;23.25;67.35
54900;BME280;40801;41.924;25.562;2023-07-31T06:28:29;99074.38;;;23.06;68.10
54900;BME280;40801;41.924;25.562;2023-07-31T06:30:56;99085.41;;;22.92;68.96
54900;BME280;40801;41.924;25.562;2023-07-31T06:33:21;99079.91;;;22.81;70.77
54900;BME280;40801;41.924;25.562;2023-07-31T06:35:46;99074.78;;;22.83;70.45
54900;BME280;40801;41.924;25.562;2023-07-31T06:38:12;99071.63;;;22.74;71.10
54900;BME280;40801;41.924;25.562;2023-07-31T06:40:37;99061.81;;;22.70;72.18
54900;BME280;40801;41.924;25.562;2023-07-31T06:43:03;99061.81;;;22.77;73.24
54900;BME280;40801;41.924;25.562;2023-07-31T06:45:34;99063.78;;;22.94;72.53
54900;BME280;40801;41.924;25.562;2023-07-31T06:47:59;99054.34;;;23.02;72.43
54900;BME280;40801;41.924;25.562;2023-07-31T06:50:27;99057.09;;;23.06;73.06
54900;BME280;40801;41.924;25.562;2023-07-31T06:52:52;99057.47;;;23.11;72.96
54900;BME280;40801;41.924;25.562;2023-07-31T06:55:20;99058.22;;;23.26;72.24
54900;BME280;40801;41.924;25.562;2023-07-31T06:57:48;99053.06;;;23.46;71.41
54900;BME280;40801;41.924;25.562;2023-07-31T07:00:14;99056.97;;;23.52;72.68
54900;BME280;40801;41.924;25.562;2023-07-31T07:02:39;99049.50;;;23.56;72.42
54900;BME280;40801;41.924;25.562;2023-07-31T07:05:23;99064.03;;;23.53;72.70
54900;BME280;40801;41.924;25.562;2023-07-31T07:07:50;99055.78;;;23.49;73.02
54900;BME280;40801;41.924;25.562;2023-07-31T07:10:16;99057.75;;;23.56;72.87
54900;BME280;40801;41.924;25.562;2023-07-31T07:12:42;99056.53;;;23.64;73.31
54900;BME280;40801;41.924;25.562;2023-07-31T07:15:07;99063.16;;;23.77;73.80
54900;BME280;40801;41.924;25.562;2023-07-31T07:17:33;99059.59;;;23.84;73.94
54900;BME280;40801;41.924;25.562;2023-07-31T07:19:59;99060.06;;;23.72;73.62
54900;BME280;40801;41.924;25.562;2023-07-31T07:22:25;99060.38;;;23.85;73.30
54900;BME280;40801;41.924;25.562;2023-07-31T07:24:52;99071.38;;;23.88;72.61
54900;BME280;40801;41.924;25.562;2023-07-31T07:27:17;99073.69;;;23.97;72.05
54900;BME280;40801;41.924;25.562;2023-07-31T07:29:43;99072.94;;;23.89;71.81
54900;BME280;40801;41.924;25.562;2023-07-31T07:32:08;99070.22;;;23.86;71.95
54900;BME280;40801;41.924;25.562;2023-07-31T07:34:33;99063.50;;;23.90;72.51
54900;BME280;40801;41.924;25.562;2023-07-31T07:36:59;99069.34;;;23.96;71.72
54900;BME280;40801;41.924;25.562;2023-07-31T07:39:24;99072.09;;;23.99;71.18
54900;BME280;40801;41.924;25.562;2023-07-31T07:41:50;99071.97;;;24.21;70.12
54900;BME280;40801;41.924;25.562;2023-07-31T07:44:15;99064.06;;;24.33;70.10
54900;BME280;40801;41.924;25.562;2023-07-31T07:46:41;99069.81;;;24.50;70.22
54900;BME280;40801;41.924;25.562;2023-07-31T07:49:06;99058.53;;;24.82;69.29
54900;BME280;40801;41.924;25.562;2023-07-31T07:51:31;99065.72;;;25.13;69.15
54900;BME280;40801;41.924;25.562;2023-07-31T07:53:58;99058.50;;;25.26;67.89
54900;BME280;40801;41.924;25.562;2023-07-31T07:56:24;99065.09;;;25.36;67.67
54900;BME280;40801;41.924;25.562;2023-07-31T07:58:50;99058.50;;;25.60;65.82
54900;BME280;40801;41.924;25.562;2023-07-31T08:01:16;99065.25;;;25.56;65.74
54900;BME280;40801;41.924;25.562;2023-07-31T08:03:41;99054.75;;;25.78;65.32
54900;BME280;40801;41.924;25.562;2023-07-31T08:06:07;99053.03;;;25.87;64.98
54900;BME280;40801;41.924;25.562;2023-07-31T08:08:34;99058.34;;;26.02;64.27
54900;BME280;40801;41.924;25.562;2023-07-31T08:11:00;99051.69;;;25.99;65.00
54900;BME280;40801;41.924;25.562;2023-07-31T08:13:25;99059.84;;;26.10;64.38
54900;BME280;40801;41.924;25.562;2023-07-31T08:15:51;99056.13;;;26.20;64.04
54900;BME280;40801;41.924;25.562;2023-07-31T08:18:16;99055.19;;;26.34;64.88
54900;BME280;40801;41.924;25.562;2023-07-31T08:20:42;99061.56;;;26.54;63.45
54900;BME280;40801;41.924;25.562;2023-07-31T08:23:07;99062.25;;;26.62;63.26
54900;BME280;40801;41.924;25.562;2023-07-31T08:25:35;99054.94;;;26.95;61.36
54900;BME280;40801;41.924;25.562;2023-07-31T08:28:01;99060.97;;;27.33;61.74
54900;BME280;40801;41.924;25.562;2023-07-31T08:30:26;99066.28;;;27.43;61.00
54900;BME280;40801;41.924;25.562;2023-07-31T08:32:51;99057.16;;;27.66;60.16
54900;BME280;40801;41.924;25.562;2023-07-31T08:35:17;99066.47;;;28.12;59.20
54900;BME280;40801;41.924;25.562;2023-07-31T08:37:42;99061.75;;;28.61;58.16
54900;BME280;40801;41.924;25.562;2023-07-31T08:40:08;99056.91;;;29.56;56.73
54900;BME280;40801;41.924;25.562;2023-07-31T08:42:33;99058.63;;;29.91;54.61
54900;BME280;40801;41.924;25.562;2023-07-31T08:44:59;99058.97;;;29.94;53.54
54900;BME280;40801;41.924;25.562;2023-07-31T08:47:25;99061.13;;;30.40;52.51
54900;BME280;40801;41.924;25.562;2023-07-31T08:49:52;99066.69;;;30.40;52.18
54900;BME280;40801;41.924;25.562;2023-07-31T08:52:18;99068.47;;;30.21;52.09
54900;BME280;40801;41.924;25.562;2023-07-31T08:54:43;99065.09;;;30.52;50.34
54900;BME280;40801;41.924;25.562;2023-07-31T08:57:09;99062.63;;;30.79;48.84
54900;BME280;40801;41.924;25.562;2023-07-31T08:59:36;99068.53;;;31.16;47.69
54900;BME280;40801;41.924;25.562;2023-07-31T09:02:07;99065.25;;;31.30;48.56
54900;BME280;40801;41.924;25.562;2023-07-31T09:04:34;99050.28;;;31.81;46.91
54900;BME280;40801;41.924;25.562;2023-07-31T09:07:01;99054.75;;;32.40;46.35
54900;BME280;40801;41.924;25.562;2023-07-31T09:09:30;99056.78;;;32.67;45.66
54900;BME280;40801;41.924;25.562;2023-07-31T09:11:55;99064.06;;;32.64;45.64
54900;BME280;40801;41.924;25.562;2023-07-31T09:14:24;99056.25;;;32.90;43.94
54900;BME280;40801;41.924;25.562;2023-07-31T09:16:57;99054.84;;;32.86;42.27
54900;BME280;40801;41.924;25.562;2023-07-31T09:19:42;99050.97;;;33.02;42.73
54900;BME280;40801;41.924;25.562;2023-07-31T09:22:08;99048.63;;;32.82;43.54
54900;BME280;40801;41.924;25.562;2023-07-31T09:24:34;99045.19;;;32.69;44.16
54900;BME280;40801;41.924;25.562;2023-07-31T09:27:00;99048.13;;;32.16;44.65
54900;BME280;40801;41.924;25.562;2023-07-31T09:29:28;99049.41;;;32.91;43.78
54900;BME280;40801;41.924;25.562;2023-07-31T09:31:55;99044.59;;;33.47;42.08
54900;BME280;40801;41.924;25.562;2023-07-31T09:34:30;99052.34;;;33.52;42.75
54900;BME280;40801;41.924;25.562;2023-07-31T09:37:01;99046.31;;;34.14;42.27
54900;BME280;40801;41.924;25.562;2023-07-31T09:39:29;99045.00;;;34.57;39.24
54900;BME280;40801;41.924;25.562;2023-07-31T09:41:55;99044.69;;;33.71;40.64
54900;BME280;40801;41.924;25.562;2023-07-31T09:44:21;99041.03;;;33.28;41.16
54900;BME280;40801;41.924;25.562;2023-07-31T09:46:47;99039.19;;;33.07;41.46
54900;BME280;40801;41.924;25.562;2023-07-31T09:49:14;99034.03;;;33.42;41.23
54900;BME280;40801;41.924;25.562;2023-07-31T09:51:41;99037.25;;;33.86;40.47
54900;BME280;40801;41.924;25.562;2023-07-31T09:54:15;99032.25;;;34.23;39.82
54900;BME280;40801;41.924;25.562;2023-07-31T09:56:50;99037.03;;;34.41;39.28
54900;BME280;40801;41.924;25.562;2023-07-31T09:59:16;99049.28;;;34.67;39.35
54900;BME280;40801;41.924;25.562;2023-07-31T10:01:44;99046.84;;;35.08;37.17
54900;BME280;40801;41.924;25.562;2023-07-31T10:04:10;99049.00;;;35.28;37.71
54900;BME280;40801;41.924;25.562;2023-07-31T10:06:37;99050.44;;;35.23;37.77
54900;BME280;40801;41.924;25.562;2023-07-31T10:09:06;99040.13;;;35.74;35.40
54900;BME280;40801;41.924;25.562;2023-07-31T10:11:34;99034.84;;;35.07;35.76
54900;BME280;40801;41.924;25.562;2023-07-31T10:14:03;99035.81;;;35.19;36.09
54900;BME280;40801;41.924;25.562;2023-07-31T10:16:30;99031.53;;;35.62;36.02
54900;BME280;40801;41.924;25.562;2023-07-31T10:18:56;99033.81;;;36.08;35.17
54900;BME280;40801;41.924;25.562;2023-07-31T10:21:22;99026.00;;;36.68;33.98
54900;BME280;40801;41.924;25.562;2023-07-31T10:23:47;99024.19;;;36.85;33.66
54900;BME280;40801;41.924;25.562;2023-07-31T10:26:16;99022.78;;;36.54;33.68
54900;BME280;40801;41.924;25.562;2023-07-31T10:28:42;99021.13;;;36.83;32.97
54900;BME280;40801;41.924;25.562;2023-07-31T10:31:09;99018.34;;;36.68;33.47
54900;BME280;40801;41.924;25.562;2023-07-31T10:33:35;99007.44;;;36.35;33.54
54900;BME280;40801;41.924;25.562;2023-07-31T10:36:19;99010.38;;;36.11;32.98
54900;BME280;40801;41.924;25.562;2023-07-31T10:38:46;99003.59;;;36.73;33.22
54900;BME280;40801;41.924;25.562;2023-07-31T10:41:14;99002.59;;;36.36;33.80
54900;BME280;40801;41.924;25.562;2023-07-31T10:43:39;99000.22;;;36.49;33.62
54900;BME280;40801;41.924;25.562;2023-07-31T10:46:12;98994.28;;;36.82;32.79
54900;BME280;40801;41.924;25.562;2023-07-31T10:48:39;98989.81;;;36.96;32.92
54900;BME280;40801;41.924;25.562;2023-07-31T10:51:10;98993.75;;;36.63;33.07
54900;BME280;40801;41.924;25.562;2023-07-31T10:53:37;98982.28;;;36.67;33.01
54900;BME280;40801;41.924;25.562;2023-07-31T10:56:07;98975.47;;;36.94;32.88
54900;BME280;40801;41.924;25.562;2023-07-31T10:58:34;98963.91;;;37.12;32.41
54900;BME280;40801;41.924;25.562;2023-07-31T11:01:01;98964.66;;;36.66;32.97
54900;BME280;40801;41.924;25.562;2023-07-31T11:03:44;98966.13;;;37.02;31.44
54900;BME280;40801;41.924;25.562;2023-07-31T11:06:09;98955.66;;;37.92;31.16
54900;BME280;40801;41.924;25.562;2023-07-31T11:08:41;98957.94;;;37.88;31.60
54900;BME280;40801;41.924;25.562;2023-07-31T11:11:09;98953.19;;;38.53;30.33
54900;BME280;40801;41.924;25.562;2023-07-31T11:13:44;98949.53;;;38.41;29.99
54900;BME280;40801;41.924;25.562;2023-07-31T11:16:12;98948.16;;;38.74;29.14
54900;BME280;40801;41.924;25.562;2023-07-31T11:18:42;98948.31;;;38.48;29.39
54900;BME280;40801;41.924;25.562;2023-07-31T11:21:11;98941.31;;;38.32;30.19
54900;BME280;40801;41.924;25.562;2023-07-31T11:23:37;98941.66;;;38.03;29.99
54900;BME280;40801;41.924;25.562;2023-07-31T11:26:05;98940.75;;;37.48;30.58
54900;BME280;40801;41.924;25.562;2023-07-31T11:28:32;98941.41;;;38.06;29.72
54900;BME280;40801;41.924;25.562;2023-07-31T11:30:59;98933.41;;;38.42;29.17
54900;BME280;40801;41.924;25.562;2023-07-31T11:33:24;98933.91;;;38.35;29.32
54900;BME280;40801;41.924;25.562;2023-07-31T11:35:49;98923.22;;;37.65;30.22
54900;BME280;40801;41.924;25.562;2023-07-31T11:40:52;98918.28;;;38.34;28.89
54900;BME280;40801;41.924;25.562;2023-07-31T11:43:18;98910.22;;;38.16;29.61
54900;BME280;40801;41.924;25.562;2023-07-31T11:45:47;98912.16;;;38.41;28.62
54900;BME280;40801;41.924;25.562;2023-07-31T11:48:24;98905.16;;;38.20;29.04
54900;BME280;40801;41.924;25.562;2023-07-31T11:50:51;98911.19;;;38.55;28.97
54900;BME280;40801;41.924;25.562;2023-07-31T11:53:19;98907.00;;;39.32;27.78
54900;BME280;40801;41.924;25.562;2023-07-31T11:55:46;98898.50;;;39.04;27.95
54900;BME280;40801;41.924;25.562;2023-07-31T11:58:13;98900.56;;;39.21;28.35
54900;BME280;40801;41.924;25.562;2023-07-31T12:00:40;98896.19;;;39.48;27.46
54900;BME280;40801;41.924;25.562;2023-07-31T12:03:06;98886.72;;;39.28;26.90
54900;BME280;40801;41.924;25.562;2023-07-31T12:05:31;98881.06;;;39.23;26.10
54900;BME280;40801;41.924;25.562;2023-07-31T12:07:57;98887.47;;;39.57;26.25
54900;BME280;40801;41.924;25.562;2023-07-31T12:10:31;98872.00;;;39.86;26.58
54900;BME280;40801;41.924;25.562;2023-07-31T12:13:01;98871.88;;;40.31;26.16
54900;BME280;40801;41.924;25.562;2023-07-31T12:15:43;98864.41;;;40.39;25.68
54900;BME280;40801;41.924;25.562;2023-07-31T12:18:10;98868.72;;;40.51;25.16
54900;BME280;40801;41.924;25.562;2023-07-31T12:20:49;98862.38;;;40.75;24.30
54900;BME280;40801;41.924;25.562;2023-07-31T12:23:23;98854.19;;;40.24;25.52
54900;BME280;40801;41.924;25.562;2023-07-31T12:26:15;98851.28;;;40.36;25.52
54900;BME280;40801;41.924;25.562;2023-07-31T12:28:45;98851.50;;;40.90;25.20
54900;BME280;40801;41.924;25.562;2023-07-31T12:31:12;98847.50;;;41.04;24.81
54900;BME280;40801;41.924;25.562;2023-07-31T12:33:39;98838.88;;;40.55;25.76
54900;BME280;40801;41.924;25.562;2023-07-31T12:36:14;98843.00;;;39.85;25.82
54900;BME280;40801;41.924;25.562;2023-07-31T12:38:40;98847.44;;;39.58;26.03
54900;BME280;40801;41.924;25.562;2023-07-31T12:41:06;98838.44;;;39.71;25.50
54900;BME280;40801;41.924;25.562;2023-07-31T12:43:32;98858.53;;;39.12;26.75
54900;BME280;40801;41.924;25.562;2023-07-31T12:45:58;98855.59;;;38.50;26.66
54900;BME280;40801;41.924;25.562;2023-07-31T12:48:24;98846.91;;;37.57;28.17
54900;BME280;40801;41.924;25.562;2023-07-31T12:50:50;98842.25;;;37.11;28.46
54900;BME280;40801;41.924;25.562;2023-07-31T12:53:15;98841.97;;;35.76;30.27
54900;BME280;40801;41.924;25.562;2023-07-31T12:55:41;98851.13;;;35.56;30.60